createdAt,value
2023-01-04T00:01:31.161Z,93.50
2023-01-04T00:03:58.621Z,93.22
2023-01-04T00:06:27.992Z,92.86
2023-01-04T00:08:57.945Z,92.12
2023-01-04T00:11:30.020Z,91.74
2023-01-04T00:14:01.948Z,91.11
2023-01-04T00:16:29.813Z,91.36
2023-01-04T00:18:58.026Z,90.87
2023-01-04T00:21:30.123Z,91.52
2023-01-04T00:24:00.721Z,90.72
2023-01-04T00:26:31.309Z,90.00
2023-01-04T00:29:02.148Z,89.82
2023-01-04T00:31:30.014Z,90.51
2023-01-04T00:34:00.561Z,91.18
2023-01-04T00:36:30.228Z,90.38
2023-01-04T00:39:08.821Z,89.66
2023-01-04T00:41:58.869Z,89.64
2023-01-04T00:44:26.898Z,89.97
2023-01-04T00:46:54.503Z,88.68
2023-01-04T00:49:24.037Z,88.79
2023-01-04T00:51:51.409Z,88.67
2023-01-04T00:54:20.210Z,89.72
2023-01-04T00:56:47.588Z,89.58
2023-01-04T00:59:17.019Z,89.00
2023-01-04T01:01:44.762Z,89.52
2023-01-04T01:04:18.490Z,89.65
2023-01-04T01:06:49.061Z,88.79
2023-01-04T01:09:17.910Z,87.51
2023-01-04T01:15:06.575Z,87.76
2023-01-04T01:17:34.915Z,87.45
2023-01-04T01:20:04.362Z,86.63
2023-01-04T01:22:33.896Z,86.98
2023-01-04T01:25:00.985Z,86.92
2023-01-04T01:27:29.027Z,87.10
2023-01-04T01:29:59.067Z,86.82
2023-01-04T01:32:26.160Z,87.44
2023-01-04T01:34:53.448Z,86.33
2023-01-04T01:37:20.382Z,85.91
2023-01-04T01:39:47.630Z,85.61
2023-01-04T01:42:23.832Z,86.76
2023-01-04T01:45:03.469Z,87.45
2023-01-04T01:47:46.773Z,88.18
2023-01-04T01:50:32.376Z,86.69
2023-01-04T01:53:02.911Z,86.90
2023-01-04T01:55:34.213Z,87.25
2023-01-04T01:58:03.920Z,87.93
2023-01-04T02:00:34.276Z,87.54
2023-01-04T02:03:14.371Z,87.32
2023-01-04T02:05:48.639Z,87.60
2023-01-04T02:08:16.594Z,86.84
2023-01-04T02:10:48.400Z,87.06
2023-01-04T02:13:22.013Z,85.95
2023-01-04T02:15:52.032Z,86.34
2023-01-04T02:18:39.763Z,86.07
2023-01-04T02:21:46.621Z,86.41
2023-01-04T02:24:51.891Z,85.28
2023-01-04T02:27:25.191Z,85.91
2023-01-04T02:30:07.897Z,85.35
2023-01-04T02:33:28.266Z,85.32
2023-01-04T02:35:58.518Z,85.49
2023-01-04T02:39:30.758Z,86.64
2023-01-04T02:42:45.804Z,85.09
2023-01-04T02:45:16.324Z,85.56
2023-01-04T02:48:02.895Z,85.37
2023-01-04T02:50:36.110Z,86.05
2023-01-04T02:53:10.665Z,86.27
2023-01-04T02:55:52.235Z,85.89
2023-01-04T02:58:59.802Z,85.07
2023-01-04T03:02:29.783Z,85.36
2023-01-04T03:05:34.594Z,85.27
2023-01-04T03:08:34.263Z,86.03
2023-01-04T03:11:03.664Z,85.60
2023-01-04T03:13:41.113Z,84.81
2023-01-04T03:16:16.375Z,85.70
2023-01-04T03:18:52.907Z,84.44
2023-01-04T03:21:24.132Z,84.30
2023-01-04T03:24:13.875Z,85.20
2023-01-04T03:27:07.374Z,85.42
2023-01-04T03:30:14.749Z,84.56
2023-01-04T03:33:09.056Z,84.54
2023-01-04T03:36:01.246Z,84.51
2023-01-04T03:39:04.404Z,84.05
2023-01-04T03:42:10.217Z,83.08
2023-01-04T03:45:29.368Z,83.11
2023-01-04T03:48:22.976Z,83.51
2023-01-04T03:51:07.644Z,82.57
2023-01-04T03:53:50.753Z,83.17
2023-01-04T03:56:22.463Z,82.55
2023-01-04T03:58:51.402Z,83.64
2023-01-04T04:01:20.669Z,83.13
2023-01-04T04:04:06.601Z,82.80
2023-01-04T04:06:52.511Z,83.39
2023-01-04T04:09:19.337Z,84.50
2023-01-04T04:11:46.217Z,84.46
2023-01-04T04:14:13.170Z,84.55
2023-01-04T04:16:40.148Z,85.06
2023-01-04T04:19:09.424Z,86.01
2023-01-04T04:21:36.954Z,87.43
2023-01-04T04:24:05.163Z,86.69
2023-01-04T04:26:32.337Z,87.37
2023-01-04T04:29:01.800Z,87.69
2023-01-04T04:31:28.732Z,88.28
2023-01-04T04:33:55.683Z,88.82
2023-01-04T04:36:22.540Z,89.79
2023-01-04T04:38:49.387Z,89.44
2023-01-04T04:41:34.735Z,90.56
2023-01-04T04:44:01.695Z,91.58
2023-01-04T04:46:33.639Z,93.08
2023-01-04T04:49:00.992Z,94.54
2023-01-04T04:51:28.214Z,93.84
2023-01-04T04:53:58.106Z,95.26
2023-01-04T04:56:25.068Z,96.69
2023-01-04T04:58:52.118Z,96.88
2023-01-04T05:01:19.810Z,97.65
2023-01-04T05:03:46.888Z,98.25
2023-01-04T05:06:16.510Z,98.87
2023-01-04T05:08:46.386Z,100.00
2023-01-04T05:11:16.514Z,100.00
2023-01-04T05:13:43.356Z,100.00
2023-01-04T05:16:13.812Z,100.00
2023-01-04T05:18:43.225Z,100.00
2023-01-04T05:21:10.217Z,100.00
2023-01-04T05:23:39.315Z,100.00
2023-01-04T05:26:06.329Z,100.00
2023-01-04T05:28:33.230Z,100.00
2023-01-04T05:31:02.576Z,100.00
2023-01-04T05:33:32.284Z,100.00
2023-01-04T05:36:02.736Z,100.00
2023-01-04T05:38:33.373Z,100.00
2023-01-04T05:41:00.272Z,100.00
2023-01-04T05:43:27.279Z,100.00
2023-01-04T05:45:57.398Z,100.00
2023-01-04T05:48:25.680Z,100.00
2023-01-04T05:50:53.796Z,100.00
2023-01-04T05:53:20.811Z,100.00
2023-01-04T05:55:50.780Z,100.00
2023-01-04T05:58:17.832Z,100.00
2023-01-04T06:00:44.739Z,100.00
2023-01-04T06:03:13.795Z,100.00
2023-01-04T06:05:43.460Z,100.00
2023-01-04T06:08:13.340Z,100.00
2023-01-04T06:10:45.202Z,100.00
2023-01-04T06:13:12.055Z,100.00
2023-01-04T06:15:43.072Z,100.00
2023-01-04T06:18:13.549Z,100.00
2023-01-04T06:20:42.698Z,100.00
2023-01-04T06:23:09.808Z,100.00
2023-01-04T06:25:39.949Z,100.00
2023-01-04T06:28:09.381Z,100.00
2023-01-04T06:30:36.381Z,100.00
2023-01-04T06:33:08.135Z,100.00
2023-01-04T06:35:36.838Z,100.00
2023-01-04T06:38:03.969Z,100.00
2023-01-04T06:40:35.583Z,100.00
2023-01-04T06:43:02.679Z,100.00
2023-01-04T06:45:34.124Z,100.00
2023-01-04T06:48:04.507Z,100.00
2023-01-04T06:50:36.795Z,100.00
2023-01-04T06:53:03.735Z,100.00
2023-01-04T06:55:32.782Z,100.00
2023-01-04T06:58:02.150Z,100.00
2023-01-04T07:00:29.131Z,100.00
2023-01-04T07:03:14.850Z,100.00
2023-01-04T07:05:44.216Z,100.00
2023-01-04T07:08:12.383Z,100.00
2023-01-04T07:10:40.202Z,100.00
2023-01-04T07:13:08.356Z,100.00
2023-01-04T07:15:38.327Z,100.00
2023-01-04T07:18:12.842Z,100.00
2023-01-04T07:20:39.792Z,100.00
2023-01-04T07:23:11.897Z,100.00
2023-01-04T07:25:41.376Z,100.00
2023-01-04T07:28:09.452Z,100.00
2023-01-04T07:30:36.591Z,100.00
2023-01-04T07:33:03.861Z,100.00
2023-01-04T07:35:30.825Z,100.00
2023-01-04T07:37:59.260Z,100.00
2023-01-04T07:40:27.781Z,100.00
2023-01-04T07:42:59.552Z,100.00
2023-01-04T07:45:27.613Z,100.00
2023-01-04T07:47:54.722Z,100.00
2023-01-04T07:50:21.789Z,100.00
2023-01-04T07:52:53.216Z,100.00
2023-01-04T07:55:20.187Z,100.00
2023-01-04T07:57:49.621Z,100.00
2023-01-04T08:00:19.305Z,100.00
2023-01-04T08:02:49.089Z,100.00
2023-01-04T08:05:18.697Z,100.00
2023-01-04T08:07:47.850Z,100.00
2023-01-04T08:10:14.786Z,100.00
2023-01-04T08:12:41.732Z,100.00
2023-01-04T08:15:09.266Z,100.00
2023-01-04T08:17:36.270Z,100.00
2023-01-04T08:20:03.856Z,100.00
2023-01-04T08:22:30.716Z,100.00
2023-01-04T08:24:57.546Z,100.00
2023-01-04T08:27:24.600Z,100.00
2023-01-04T08:29:56.159Z,100.00
2023-01-04T08:32:23.107Z,100.00
2023-01-04T08:34:50.274Z,100.00
2023-01-04T08:37:19.381Z,100.00
2023-01-04T08:39:49.260Z,100.00
2023-01-04T08:42:26.596Z,100.00
2023-01-04T08:44:59.852Z,100.00
2023-01-04T08:47:29.276Z,100.00
2023-01-04T08:49:56.526Z,100.00
2023-01-04T08:52:23.567Z,100.00
2023-01-04T08:54:50.595Z,100.00
2023-01-04T08:57:18.979Z,100.00
2023-01-04T08:59:45.922Z,100.00
2023-01-04T09:02:27.734Z,100.00
2023-01-04T09:05:00.129Z,100.00
2023-01-04T09:07:34.011Z,100.00
2023-01-04T09:10:01.127Z,100.00
2023-01-04T09:12:28.116Z,100.00
2023-01-04T09:14:57.340Z,100.00
2023-01-04T09:17:28.836Z,100.00
2023-01-04T09:19:55.741Z,100.00
2023-01-04T09:22:22.649Z,100.00
2023-01-04T09:24:49.591Z,100.00
2023-01-04T09:27:19.653Z,100.00
2023-01-04T09:29:47.049Z,100.00
2023-01-04T09:32:18.623Z,100.00
2023-01-04T09:34:48.047Z,100.00
2023-01-04T09:37:18.172Z,100.00
2023-01-04T09:39:47.224Z,100.00
2023-01-04T09:42:29.201Z,100.00
2023-01-04T09:45:24.187Z,100.00
2023-01-04T09:48:05.056Z,100.00
2023-01-04T09:50:49.129Z,100.00
2023-01-04T09:53:27.332Z,100.00
2023-01-04T09:56:00.160Z,100.00
2023-01-04T09:58:32.715Z,100.00
2023-01-04T10:01:07.586Z,100.00
2023-01-04T10:03:40.879Z,100.00
2023-01-04T10:06:12.575Z,100.00
2023-01-04T10:08:45.187Z,100.00
2023-01-04T10:11:15.127Z,100.00
2023-01-04T10:13:44.891Z,100.00
2023-01-04T10:22:53.798Z,100.00
2023-01-04T10:26:08.934Z,100.00
2023-01-04T10:28:56.267Z,100.00
2023-01-04T10:31:48.102Z,100.00
2023-01-04T10:34:53.314Z,100.00
2023-01-04T10:37:27.933Z,100.00
2023-01-04T10:39:56.608Z,100.00
2023-01-04T10:42:33.944Z,100.00
2023-01-04T10:45:09.347Z,100.00
2023-01-04T10:48:06.720Z,100.00
2023-01-04T10:51:04.976Z,100.00
2023-01-04T10:53:47.113Z,100.00
2023-01-04T10:57:00.190Z,100.00
2023-01-04T10:59:38.456Z,100.00
2023-01-04T11:02:45.435Z,100.00
2023-01-04T11:05:33.117Z,100.00
2023-01-04T11:08:16.222Z,100.00
2023-01-04T11:10:50.636Z,100.00
2023-01-04T11:13:17.868Z,100.00
2023-01-04T11:15:47.871Z,100.00
2023-01-04T11:18:17.667Z,100.00
2023-01-04T11:20:45.017Z,100.00
2023-01-04T11:23:18.760Z,100.00
2023-01-04T11:25:56.875Z,100.00
2023-01-04T11:28:56.559Z,100.00
2023-01-04T11:31:55.769Z,100.00
2023-01-04T11:34:52.237Z,100.00
2023-01-04T11:37:29.910Z,100.00
2023-01-04T11:40:17.522Z,100.00
2023-01-04T11:43:09.055Z,100.00
2023-01-04T11:45:36.266Z,100.00
2023-01-04T11:48:12.402Z,100.00
2023-01-04T11:50:47.847Z,100.00
2023-01-04T11:53:36.758Z,100.00
2023-01-04T11:56:13.274Z,100.00
2023-01-04T11:58:42.355Z,100.00
2023-01-04T12:01:27.493Z,100.00
2023-01-04T12:04:00.455Z,100.00
2023-01-04T12:06:48.963Z,100.00
2023-01-04T12:09:18.747Z,100.00
2023-01-04T12:12:10.942Z,100.00
2023-01-04T12:14:48.712Z,100.00
2023-01-04T12:17:50.669Z,100.00
2023-01-04T12:20:21.111Z,100.00
2023-01-04T12:22:48.040Z,100.00
2023-01-04T12:25:24.315Z,100.00
2023-01-04T12:27:52.422Z,100.00
2023-01-04T12:30:41.908Z,100.00
2023-01-04T12:33:35.222Z,100.00
2023-01-04T12:36:12.616Z,100.00
2023-01-04T12:38:54.603Z,100.00
2023-01-04T12:41:33.472Z,100.00
2023-01-04T12:44:01.832Z,100.00
2023-01-04T12:46:46.904Z,100.00
2023-01-04T12:49:28.912Z,100.00
2023-01-04T12:54:58.299Z,100.00
2023-01-04T12:57:37.728Z,100.00
2023-01-04T13:00:18.442Z,100.00
2023-01-04T13:03:17.981Z,100.00
2023-01-04T13:06:03.640Z,100.00
2023-01-04T13:08:36.993Z,100.00
2023-01-04T13:11:42.760Z,100.00
2023-01-04T13:14:38.317Z,100.00
2023-01-04T13:17:26.731Z,100.00
2023-01-04T13:19:53.766Z,100.00
2023-01-04T13:22:29.733Z,100.00
2023-01-04T13:24:59.269Z,100.00
2023-01-04T13:27:28.953Z,100.00
2023-01-04T13:29:56.083Z,100.00
2023-01-04T13:32:59.360Z,100.00
2023-01-04T13:35:26.018Z,100.00
2023-01-04T13:37:53.270Z,100.00
2023-01-04T13:40:35.905Z,100.00
2023-01-04T13:43:42.280Z,100.00
2023-01-04T13:46:19.880Z,100.00
2023-01-04T13:48:52.963Z,100.00
2023-01-04T13:51:37.214Z,100.00
2023-01-04T13:54:23.403Z,100.00
2023-01-04T13:56:55.622Z,100.00
2023-01-04T13:59:23.220Z,100.00
2023-01-04T14:01:53.380Z,100.00
2023-01-04T14:04:30.127Z,100.00
2023-01-04T14:06:59.943Z,100.00
2023-01-04T14:09:36.806Z,100.00
2023-01-04T14:12:17.551Z,100.00
2023-01-04T14:15:04.311Z,100.00
2023-01-04T14:17:36.436Z,100.00
2023-01-04T14:20:10.899Z,100.00
2023-01-04T14:22:45.760Z,100.00
2023-01-04T14:25:34.076Z,100.00
2023-01-04T14:28:22.213Z,100.00
2023-01-04T14:30:58.816Z,100.00
2023-01-04T14:34:04.111Z,100.00
2023-01-04T14:36:32.633Z,100.00
2023-01-04T14:39:08.243Z,100.00
2023-01-04T14:41:51.602Z,100.00
2023-01-04T14:44:21.616Z,100.00
2023-01-04T14:46:55.762Z,100.00
2023-01-04T14:49:26.648Z,100.00
2023-01-04T14:52:07.963Z,100.00
2023-01-04T14:54:39.192Z,100.00
2023-01-04T14:57:06.186Z,100.00
2023-01-04T14:59:33.409Z,100.00
2023-01-04T15:02:02.782Z,100.00
2023-01-04T15:04:30.265Z,100.00
2023-01-04T15:07:00.341Z,100.00
2023-01-04T15:09:28.919Z,100.00
2023-01-04T15:11:58.516Z,100.00
2023-01-04T15:14:25.594Z,100.00
2023-01-04T15:16:54.731Z,100.00
2023-01-04T15:19:23.878Z,100.00
2023-01-04T15:21:50.920Z,100.00
2023-01-04T15:24:17.838Z,100.00
2023-01-04T15:26:47.170Z,100.00
2023-01-04T15:29:16.527Z,100.00
2023-01-04T15:31:46.654Z,100.00
2023-01-04T15:34:18.166Z,100.00
2023-01-04T15:36:45.094Z,100.00
2023-01-04T15:39:16.645Z,100.00
2023-01-04T15:42:02.283Z,100.00
2023-01-04T15:44:29.222Z,100.00
2023-01-04T15:46:56.187Z,100.00
2023-01-04T15:49:25.510Z,100.00
2023-01-04T15:51:52.685Z,100.00
2023-01-04T15:54:21.733Z,100.00
2023-01-04T15:56:48.999Z,100.00
2023-01-04T15:59:15.924Z,100.00
2023-01-04T16:01:43.303Z,100.00
2023-01-04T16:04:11.617Z,100.00
2023-01-04T16:06:41.449Z,100.00
2023-01-04T16:09:08.447Z,100.00
2023-01-04T16:11:57.802Z,100.00
2023-01-04T16:14:24.695Z,100.00
2023-01-04T16:16:51.685Z,100.00
2023-01-04T16:19:18.563Z,100.00
2023-01-04T16:21:48.425Z,100.00
2023-01-04T16:24:45.352Z,100.00
2023-01-04T16:27:07.466Z,100.00
2023-01-04T16:29:34.553Z,100.00
2023-01-04T16:32:01.512Z,100.00
2023-01-04T16:34:28.483Z,100.00
2023-01-04T16:36:58.720Z,100.00
2023-01-04T16:39:49.547Z,100.00
2023-01-04T16:42:12.524Z,100.00
2023-01-04T16:44:39.683Z,100.00
2023-01-04T16:47:06.843Z,100.00
2023-01-04T16:49:33.948Z,100.00
2023-01-04T16:52:01.151Z,100.00
2023-01-04T16:54:28.145Z,100.00
2023-01-04T16:56:59.964Z,100.00
2023-01-04T16:59:27.030Z,100.00
2023-01-04T17:01:58.335Z,100.00
2023-01-04T17:04:28.006Z,100.00
2023-01-04T17:06:57.396Z,100.00
2023-01-04T17:09:24.479Z,100.00
2023-01-04T17:14:44.379Z,99.39
2023-01-04T17:17:11.385Z,99.03
2023-01-04T17:19:41.300Z,98.57
2023-01-04T17:22:08.498Z,99.38
2023-01-04T17:24:35.420Z,98.19
2023-01-04T17:27:02.286Z,98.90
2023-01-04T17:29:31.875Z,98.53
2023-01-04T17:31:59.056Z,98.81
2023-01-04T17:34:28.279Z,97.76
2023-01-04T17:36:55.304Z,98.62
2023-01-04T17:39:22.678Z,98.73
2023-01-04T17:41:51.164Z,98.67
2023-01-04T17:44:18.471Z,98.88
2023-01-04T17:46:48.606Z,98.77
2023-01-04T17:49:22.482Z,98.69
2023-01-04T17:51:55.020Z,97.99
2023-01-04T17:54:24.548Z,97.24
2023-01-04T17:56:51.998Z,96.99
2023-01-04T17:59:19.036Z,98.08
2023-01-04T18:01:46.825Z,98.17
2023-01-04T18:04:22.776Z,97.60
2023-01-04T18:06:52.244Z,97.21
2023-01-04T18:09:24.488Z,95.93
2023-01-04T18:11:55.108Z,95.24
2023-01-04T18:14:24.005Z,95.02
2023-01-04T18:16:57.617Z,95.08
2023-01-04T18:19:29.106Z,95.04
2023-01-04T18:21:57.646Z,95.24
2023-01-04T18:24:42.161Z,95.50
2023-01-04T18:27:29.028Z,95.03
2023-01-04T18:29:56.805Z,93.26
2023-01-04T18:32:30.482Z,92.89
2023-01-04T18:35:04.458Z,93.95
2023-01-04T18:37:40.603Z,94.41
2023-01-04T18:40:12.778Z,93.46
2023-01-04T18:42:48.292Z,93.28
2023-01-04T18:45:17.157Z,92.54
2023-01-04T18:47:47.567Z,92.50
2023-01-04T18:50:19.411Z,94.42
2023-01-04T18:52:46.451Z,94.27
2023-01-04T18:55:15.128Z,94.24
2023-01-04T18:57:44.701Z,94.53
2023-01-04T19:00:14.615Z,94.10
2023-01-04T19:02:41.799Z,93.77
2023-01-04T19:05:10.392Z,94.17
2023-01-04T19:07:39.144Z,93.52
2023-01-04T19:10:07.621Z,93.49
2023-01-04T19:12:39.190Z,93.32
2023-01-04T19:15:08.633Z,92.13
2023-01-04T19:17:37.942Z,92.96
2023-01-04T19:20:06.215Z,92.62
2023-01-04T19:22:34.682Z,91.78
2023-01-04T19:25:03.532Z,91.89
2023-01-04T19:27:31.051Z,91.35
2023-01-04T19:29:59.121Z,92.97
2023-01-04T19:32:33.384Z,92.73
2023-01-04T19:35:01.816Z,92.81
2023-01-04T19:37:30.876Z,94.43
2023-01-04T19:40:00.164Z,95.41
2023-01-04T19:42:27.101Z,94.04
2023-01-04T19:44:55.606Z,93.56
2023-01-04T19:47:25.889Z,93.06
2023-01-04T19:49:55.948Z,92.37
2023-01-04T19:52:23.596Z,93.00
2023-01-04T19:54:51.825Z,95.07
2023-01-04T19:57:20.395Z,94.90
2023-01-04T19:59:49.052Z,97.08
2023-01-04T20:02:16.904Z,96.40
2023-01-04T20:04:49.787Z,96.14
2023-01-04T20:07:20.637Z,97.81
2023-01-04T20:09:48.847Z,98.48
2023-01-04T20:12:16.245Z,100.00
2023-01-04T20:14:43.395Z,100.00
2023-01-04T20:17:12.520Z,100.00
2023-01-04T20:19:41.810Z,100.00
2023-01-04T20:22:12.603Z,100.00
2023-01-04T20:24:43.379Z,100.00
2023-01-04T20:27:11.878Z,100.00
2023-01-04T20:29:43.293Z,100.00
2023-01-04T20:32:14.004Z,100.00
2023-01-04T20:34:43.741Z,99.62
2023-01-04T20:37:10.915Z,98.71
2023-01-04T20:39:40.532Z,98.67
2023-01-04T20:42:26.302Z,98.72
2023-01-04T20:44:53.567Z,99.24
2023-01-04T20:47:20.475Z,98.96
2023-01-04T20:49:48.674Z,99.51
2023-01-04T20:52:15.668Z,99.18
2023-01-04T20:54:43.376Z,99.48
2023-01-04T20:57:10.316Z,98.32
2023-01-04T20:59:41.767Z,98.61
2023-01-04T21:02:12.673Z,100.00
2023-01-04T21:04:39.841Z,100.00
2023-01-04T21:07:06.870Z,99.32
2023-01-04T21:09:33.817Z,96.99
2023-01-04T21:12:06.756Z,97.15
2023-01-04T21:14:38.735Z,97.87
2023-01-04T21:17:06.107Z,99.63
2023-01-04T21:19:34.462Z,98.44
2023-01-04T21:22:02.637Z,99.70
2023-01-04T21:24:34.627Z,99.10
2023-01-04T21:27:04.098Z,99.81
2023-01-04T21:29:31.356Z,99.36
2023-01-04T21:31:59.998Z,99.81
2023-01-04T21:34:31.952Z,100.00
2023-01-04T21:37:02.639Z,100.00
2023-01-04T21:39:29.559Z,100.00
2023-01-04T21:42:00.200Z,100.00
2023-01-04T21:44:29.235Z,100.00
2023-01-04T21:46:56.339Z,100.00
2023-01-04T21:49:23.345Z,100.00
2023-01-04T21:51:50.279Z,99.58
2023-01-04T21:54:17.572Z,99.98
2023-01-04T21:56:47.134Z,99.32
2023-01-04T21:59:16.722Z,98.39
2023-01-04T22:01:44.379Z,99.23
2023-01-04T22:04:11.524Z,98.81
2023-01-04T22:06:42.142Z,97.74
2023-01-04T22:09:10.231Z,98.74
2023-01-04T22:11:37.416Z,98.50
2023-01-04T22:14:06.604Z,98.11
2023-01-04T22:16:33.860Z,99.90
2023-01-04T22:19:00.759Z,99.73
2023-01-04T22:21:27.921Z,99.38
2023-01-04T22:23:55.328Z,98.95
2023-01-04T22:26:22.317Z,99.00
2023-01-04T22:28:49.364Z,99.55
2023-01-04T22:31:16.687Z,99.61
2023-01-04T22:33:43.949Z,98.49
2023-01-04T22:36:22.209Z,99.75
2023-01-04T22:38:53.833Z,100.00
2023-01-04T22:41:23.380Z,100.00
2023-01-04T22:44:03.272Z,100.00
2023-01-04T22:46:32.643Z,100.00
2023-01-04T22:49:01.348Z,99.08
2023-01-04T22:51:30.004Z,99.87
2023-01-04T22:54:01.526Z,100.00
2023-01-04T22:56:29.527Z,99.36
2023-01-04T22:58:57.954Z,99.54
2023-01-04T23:01:34.317Z,99.63
2023-01-04T23:04:03.182Z,98.80
2023-01-04T23:06:34.636Z,99.24
2023-01-04T23:09:07.619Z,99.14
2023-01-04T23:11:37.178Z,99.37
2023-01-04T23:14:07.589Z,99.11
2023-01-04T23:16:37.185Z,99.65
2023-01-04T23:19:06.173Z,99.45
2023-01-04T23:21:35.285Z,98.63
2023-01-04T23:24:03.164Z,98.96
2023-01-04T23:26:31.608Z,98.87
2023-01-04T23:28:59.771Z,98.94
2023-01-04T23:31:32.891Z,97.87
2023-01-04T23:34:03.245Z,97.80
2023-01-04T23:36:36.666Z,97.05
2023-01-04T23:39:11.731Z,97.65
2023-01-04T23:41:45.294Z,97.05
2023-01-04T23:44:31.992Z,98.39
2023-01-04T23:49:37.193Z,98.74
2023-01-04T23:52:10.106Z,98.03
2023-01-04T23:54:36.948Z,98.36
2023-01-04T23:57:04.295Z,99.26
2023-01-04T23:59:31.437Z,98.53
